Accueil
METAR-TAF:

METAR-TAF

Aéroports :

Coni, Italie

Aéroport international de Coni

latitude: 44-32-47N, longitude: 007-37-20E, altitude: 386 m

Observation

Le bulletin a été fait il y a 6 heures et 8 minutes, à 19:50 UTC
Vent 7 kt de sud-est
Température 24°C
Humidité 78%
Pression 1016 hPa
Visibilité 10 km ou plus
pas de nuages en-dessous de 1500 mètres et pas de cumulonimbus.

METAR: LIMZ 231950Z 14007KT CAVOK 24/20 Q1016

Heure: 03:58 (01:58 UTC)

Prévision

Le bulletin a été fait il y a 8 heures et 58 minutes, à 17:00 UTC
Prévision valable du 23 à 18 UTC au 24 à 18 UTC
Vent 5 kt de direction variable
Visibilité: 8000 m

TAF: LIMZ 231700Z 2318/2418 VRB05KT 8000 NSC

Observations et prévisions météorologiques de plus de 4000 aéroports (messages METAR et TAF).

Les stations disponibles sont représentées par des disques jaunes et rouges sur la carte.

Passer la souris dessus pour voir le nom de la station.

Cliquer dessus pour voir les observations et prévisions météorologiques.

Pour changer de carte: cliquez sur les boutons verts avec une croix noire pour zoomer, sur le bouton vert avec un tiret pour effectuer un zoom arrière, ou sur les flèches vertes pour les cartes adjacentes.


METAR-TAF: